Time;durP1;ratioP1;P1;durP2;ratioP2;P2;SDS_P1;SDS_P2;PMS_P1;PMS_P2;Temp;Humidity;BMP_temperature;BMP_pressure;BME280_temperature;BME280_humidity;BME280_pressure;Samples;Min_cycle;Max_cycle;Signal;HPM_P1;HPM_P2
2021/12/14 00:00:39;;;;;;;1.67;1.67;;;16.90;68.00;;;;;;5047521;28;44195;-69
2021/12/14 00:03:08;;;;;;;1.53;1.53;;;16.80;68.10;;;;;;5047550;28;43961;-69
2021/12/14 00:05:37;;;;;;;1.50;1.50;;;16.70;68.30;;;;;;5046712;28;44085;-70
2021/12/14 00:08:06;;;;;;;1.60;1.60;;;16.70;68.50;;;;;;5047367;28;43632;-69
2021/12/14 00:10:51;;;;;;;1.60;1.60;;;16.70;68.70;;;;;;5029458;28;43639;-69
2021/12/14 00:13:28;;;;;;;1.57;1.57;;;16.60;68.70;;;;;;5047364;28;44039;-69
2021/12/14 00:15:56;;;;;;;1.80;1.80;;;16.60;69.50;;;;;;5047547;28;43906;-69
2021/12/14 00:18:26;;;;;;;1.63;1.63;;;16.60;69.00;;;;;;5029031;28;44110;-69
2021/12/14 00:20:56;;;;;;;1.57;1.57;;;16.60;69.00;;;;;;5047762;28;43445;-69
2021/12/14 00:26:12;;;;;;;1.60;1.60;;;16.50;69.00;;;;;;5047224;28;43960;-68
2021/12/14 00:28:41;;;;;;;1.60;1.60;;;16.50;69.00;;;;;;5047240;28;43360;-69
2021/12/14 00:31:10;;;;;;;1.53;1.53;;;16.50;69.00;;;;;;5029174;28;43988;-68
2021/12/14 00:33:40;;;;;;;1.60;1.60;;;16.50;69.00;;;;;;5046784;28;43981;-69
2021/12/14 00:36:09;;;;;;;1.50;1.50;;;16.50;69.00;;;;;;5046611;28;43981;-68
2021/12/14 00:38:37;;;;;;;1.47;1.47;;;16.50;69.00;;;;;;5040303;28;43907;-69
2021/12/14 00:41:07;;;;;;;1.47;1.47;;;16.50;69.10;;;;;;5019329;28;43796;-68
2021/12/14 00:43:35;;;;;;;1.43;1.43;;;16.60;69.10;;;;;;5040329;28;43966;-69
2021/12/14 00:46:03;;;;;;;1.60;1.60;;;16.70;68.80;;;;;;5009135;28;45876;-68
2021/12/14 00:48:31;;;;;;;1.40;1.40;;;16.90;68.60;;;;;;5040517;28;43981;-69
2021/12/14 00:51:01;;;;;;;1.40;1.40;;;17.00;68.00;;;;;;5046791;28;44096;-70
2021/12/14 00:53:29;;;;;;;1.60;1.60;;;17.10;67.60;;;;;;5046691;28;43918;-69
2021/12/14 00:55:58;;;;;;;1.47;1.47;;;17.30;67.20;;;;;;5046637;28;43822;-69
2021/12/14 00:58:26;;;;;;;1.60;1.60;;;17.50;66.70;;;;;;5046660;28;43933;-69
2021/12/14 01:00:58;;;;;;;1.53;1.53;;;17.60;66.20;;;;;;5046223;28;43992;-69
2021/12/14 01:03:27;;;;;;;1.40;1.40;;;17.70;65.90;;;;;;5028501;28;45721;-69
2021/12/14 01:05:55;;;;;;;1.40;1.40;;;17.80;65.60;;;;;;5027461;28;43983;-69
2021/12/14 01:08:37;;;;;;;1.37;1.37;;;17.90;65.30;;;;;;5046629;28;43933;-69
2021/12/14 01:11:08;;;;;;;1.50;1.50;;;17.90;65.10;;;;;;5028578;28;43999;-69
2021/12/14 01:13:41;;;;;;;1.50;1.50;;;17.90;65.00;;;;;;5028281;28;45876;-69
2021/12/14 01:16:15;;;;;;;1.60;1.60;;;17.80;65.30;;;;;;5028293;28;45092;-69
2021/12/14 01:18:48;;;;;;;1.30;1.30;;;17.60;65.50;;;;;;5047056;28;43981;-68
2021/12/14 01:21:28;;;;;;;1.43;1.43;;;17.50;66.00;;;;;;5028663;28;43461;-68
2021/12/14 01:24:04;;;;;;;1.30;1.30;;;17.30;66.40;;;;;;5046364;28;43976;-69
2021/12/14 01:26:35;;;;;;;1.40;1.40;;;17.20;66.80;;;;;;5046394;28;44004;-69
2021/12/14 01:29:05;;;;;;;1.70;1.70;;;17.10;67.10;;;;;;5046245;28;43952;-69
2021/12/14 01:31:36;;;;;;;1.40;1.40;;;17.00;68.10;;;;;;5046398;28;44075;-69
2021/12/14 01:34:10;;;;;;;1.43;1.43;;;16.90;67.60;;;;;;5028156;28;46116;-69
2021/12/14 01:36:42;;;;;;;1.40;1.40;;;16.90;68.00;;;;;;5046001;28;43925;-69
2021/12/14 01:39:44;;;;;;;1.60;1.60;;;17.00;67.90;;;;;;5027892;28;43957;-69
2021/12/14 01:42:14;;;;;;;1.40;1.40;;;17.10;67.60;;;;;;5028588;28;43591;-69
2021/12/14 01:44:44;;;;;;;1.30;1.30;;;17.10;67.50;;;;;;5028078;28;44035;-69
2021/12/14 01:47:16;;;;;;;1.40;1.40;;;17.00;67.40;;;;;;5028075;28;43911;-69
2021/12/14 01:49:52;;;;;;;1.23;1.23;;;17.00;67.60;;;;;;5028175;28;44075;-69
2021/12/14 01:52:38;;;;;;;1.47;1.47;;;16.90;67.80;;;;;;5028434;28;43874;-70
2021/12/14 01:55:09;;;;;;;1.50;1.50;;;16.90;68.00;;;;;;5024821;28;46442;-68
2021/12/14 01:57:37;;;;;;;1.43;1.43;;;16.80;68.20;;;;;;5027683;28;45125;-69
2021/12/14 02:00:07;;;;;;;1.40;1.40;;;16.70;68.20;;;;;;5027838;28;43922;-69
2021/12/14 02:02:42;;;;;;;1.40;1.40;;;16.70;68.40;;;;;;5042907;28;43993;-69
2021/12/14 02:05:20;;;;;;;1.53;1.53;;;16.70;68.50;;;;;;5045327;28;43796;-69
2021/12/14 02:07:49;;;;;;;1.40;1.40;;;16.70;68.60;;;;;;5027567;28;43998;-68
2021/12/14 02:10:21;;;;;;;1.53;1.53;;;16.60;68.60;;;;;;5045769;28;43971;-69
2021/12/14 02:12:50;;;;;;;1.50;1.50;;;16.60;68.70;;;;;;5029408;28;43434;-69
2021/12/14 02:15:20;;;;;;;1.50;1.50;;;16.70;68.90;;;;;;5030905;28;44079;-69
2021/12/14 02:17:54;;;;;;;1.43;1.43;;;16.80;68.70;;;;;;5030679;28;44915;-68
2021/12/14 02:20:26;;;;;;;1.40;1.40;;;16.90;68.20;;;;;;5049455;28;43811;-68
2021/12/14 02:22:56;;;;;;;1.37;1.37;;;17.00;67.80;;;;;;5031470;28;43966;-69
2021/12/14 02:25:24;;;;;;;1.27;1.27;;;17.10;67.50;;;;;;5030840;28;43957;-69
2021/12/14 02:27:53;;;;;;;1.33;1.33;;;17.20;67.40;;;;;;5030885;28;46320;-69
2021/12/14 02:30:23;;;;;;;1.70;1.70;;;17.10;67.20;;;;;;5030731;28;43983;-69
2021/12/14 02:32:51;;;;;;;1.40;1.40;;;17.00;67.30;;;;;;5021264;28;43429;-69
2021/12/14 02:35:21;;;;;;;1.50;1.50;;;17.00;67.60;;;;;;5042211;28;43796;-68
2021/12/14 02:37:50;;;;;;;1.40;1.40;;;16.90;67.80;;;;;;5024181;28;44102;-68
2021/12/14 02:40:31;;;;;;;1.50;1.50;;;16.90;68.00;;;;;;5011388;28;43473;-69
2021/12/14 02:43:00;;;;;;;1.40;1.40;;;16.80;68.20;;;;;;5030941;28;43949;-69
2021/12/14 02:45:29;;;;;;;1.57;1.57;;;16.80;68.30;;;;;;5030351;28;44998;-68
2021/12/14 02:47:57;;;;;;;1.50;1.50;;;16.70;68.40;;;;;;5030295;28;44437;-70
2021/12/14 02:50:25;;;;;;;1.60;1.60;;;16.70;68.50;;;;;;5048822;28;44063;-68
2021/12/14 02:52:53;;;;;;;1.40;1.40;;;16.70;68.80;;;;;;5048857;28;43916;-69
2021/12/14 02:55:26;;;;;;;1.60;1.60;;;16.80;68.70;;;;;;5048363;28;43819;-69
2021/12/14 02:57:57;;;;;;;1.20;1.20;;;16.90;68.30;;;;;;5030084;28;43950;-68
2021/12/14 03:00:28;;;;;;;1.33;1.33;;;16.90;68.00;;;;;;5030505;28;43875;-69
2021/12/14 03:02:59;;;;;;;1.47;1.47;;;16.90;68.00;;;;;;5030520;28;43945;-69
2021/12/14 03:05:29;;;;;;;1.53;1.53;;;16.90;68.00;;;;;;5026298;28;46266;-70
2021/12/14 03:07:59;;;;;;;1.40;1.40;;;16.80;68.10;;;;;;5026889;28;44667;-69
2021/12/14 03:10:39;;;;;;;1.47;1.47;;;16.80;68.30;;;;;;5028222;28;43949;-69
2021/12/14 03:13:09;;;;;;;1.40;1.40;;;16.70;68.40;;;;;;5022217;28;43930;-69
2021/12/14 03:15:46;;;;;;;1.53;1.53;;;16.70;68.50;;;;;;5027949;28;43976;-69
2021/12/14 03:18:15;;;;;;;1.40;1.40;;;16.70;68.70;;;;;;5021417;28;45688;-69
2021/12/14 03:20:44;;;;;;;1.30;1.30;;;16.60;68.70;;;;;;5028285;28;43857;-69
2021/12/14 03:23:13;;;;;;;1.50;1.50;;;16.60;68.70;;;;;;5027999;28;43475;-69
2021/12/14 03:25:45;;;;;;;1.50;1.50;;;16.60;68.80;;;;;;5026532;28;45988;-69
2021/12/14 03:28:14;;;;;;;1.63;1.60;;;16.60;68.90;;;;;;5026480;28;44443;-68
2021/12/14 03:30:44;;;;;;;1.60;1.60;;;16.60;69.00;;;;;;5026538;28;44021;-69
2021/12/14 03:33:17;;;;;;;1.47;1.47;;;16.60;69.10;;;;;;5026786;28;43950;-70
2021/12/14 03:35:48;;;;;;;1.60;1.60;;;16.70;68.80;;;;;;5026569;28;46978;-68
2021/12/14 03:38:22;;;;;;;1.40;1.40;;;16.80;68.40;;;;;;5026408;28;45995;-68
2021/12/14 03:40:57;;;;;;;1.50;1.50;;;16.90;67.90;;;;;;5026372;28;43965;-68
2021/12/14 03:43:27;;;;;;;1.30;1.30;;;17.10;67.60;;;;;;5026694;28;44055;-69
2021/12/14 03:45:55;;;;;;;1.60;1.60;;;17.10;67.40;;;;;;5027517;28;43705;-69
2021/12/14 03:48:24;;;;;;;1.43;1.43;;;17.00;67.40;;;;;;5026009;28;43952;-69
2021/12/14 03:50:52;;;;;;;1.47;1.47;;;17.00;68.40;;;;;;5027738;28;43910;-68
2021/12/14 03:53:21;;;;;;;1.50;1.50;;;16.90;67.90;;;;;;5028013;28;43972;-69
2021/12/14 03:55:53;;;;;;;1.30;1.30;;;16.80;68.00;;;;;;5026181;28;45420;-69
2021/12/14 03:58:24;;;;;;;1.50;1.50;;;16.80;68.20;;;;;;5027375;28;44027;-69
2021/12/14 04:00:55;;;;;;;1.43;1.43;;;16.70;68.30;;;;;;5027559;28;43744;-69
2021/12/14 04:03:24;;;;;;;1.60;1.60;;;16.70;68.40;;;;;;5024606;28;43865;-69
2021/12/14 04:06:03;;;;;;;1.70;1.70;;;16.70;68.60;;;;;;5025305;28;43932;-69
2021/12/14 04:08:32;;;;;;;1.50;1.50;;;16.70;68.70;;;;;;5025706;28;43977;-69
2021/12/14 04:11:01;;;;;;;1.87;1.87;;;16.70;68.80;;;;;;5025891;28;43472;-69
2021/12/14 04:13:32;;;;;;;1.50;1.50;;;16.70;68.70;;;;;;5027410;28;44291;-69
2021/12/14 04:16:02;;;;;;;1.50;1.50;;;16.80;68.20;;;;;;5025691;28;43994;-69
2021/12/14 04:18:30;;;;;;;1.47;1.47;;;16.90;68.10;;;;;;5025514;28;43994;-69
2021/12/14 04:21:00;;;;;;;1.50;1.50;;;16.90;68.00;;;;;;5025764;28;43447;-69
2021/12/14 04:23:30;;;;;;;1.37;1.37;;;16.90;68.10;;;;;;5025962;28;43962;-69
2021/12/14 04:26:03;;;;;;;1.50;1.50;;;16.80;68.10;;;;;;5025604;28;43954;-69
2021/12/14 04:28:34;;;;;;;1.60;1.60;;;16.80;68.30;;;;;;5026752;28;44032;-69
2021/12/14 04:31:02;;;;;;;1.67;1.67;;;16.70;68.40;;;;;;5025733;28;44067;-68
2021/12/14 04:33:31;;;;;;;1.60;1.60;;;16.70;68.50;;;;;;5025945;28;43949;-69
2021/12/14 04:36:02;;;;;;;1.80;1.80;;;16.60;68.60;;;;;;5024444;28;44085;-70
2021/12/14 04:38:34;;;;;;;1.63;1.63;;;16.60;68.70;;;;;;5025306;28;45356;-70
2021/12/14 04:52:11;;;;;;;2.83;2.40;;;16.60;69.10;;;;;;5025292;28;43971;-69
2021/12/14 04:54:42;;;;;;;2.53;2.43;;;16.70;68.70;;;;;;5025594;28;44013;-69
2021/12/14 04:57:22;;;;;;;2.30;2.20;;;16.90;68.40;;;;;;5025020;28;46351;-69
2021/12/14 04:59:53;;;;;;;2.53;2.33;;;17.00;67.90;;;;;;5024658;28;43360;-70
2021/12/14 05:02:24;;;;;;;2.83;2.60;;;17.10;67.60;;;;;;5026713;28;43833;-69
2021/12/14 05:05:05;;;;;;;2.37;2.27;;;17.10;67.40;;;;;;5006578;28;43843;-69
2021/12/14 05:07:47;;;;;;;2.70;2.50;;;17.00;67.40;;;;;;5024990;28;46752;-69
2021/12/14 05:10:18;;;;;;;3.47;2.70;;;17.00;67.70;;;;;;5025283;28;44686;-69
2021/12/14 05:12:53;;;;;;;3.17;2.87;;;16.90;67.90;;;;;;5025024;28;43807;-69
2021/12/14 05:15:28;;;;;;;2.87;2.50;;;16.80;68.00;;;;;;5025713;28;43947;-68
2021/12/14 05:17:58;;;;;;;2.83;2.63;;;16.80;68.30;;;;;;5025114;28;43990;-68
2021/12/14 05:20:28;;;;;;;2.73;2.53;;;16.70;68.40;;;;;;5024915;28;44821;-69
2021/12/14 05:22:57;;;;;;;2.97;2.77;;;16.70;68.50;;;;;;5024725;28;44036;-69
2021/12/14 05:25:27;;;;;;;2.93;2.73;;;16.70;68.60;;;;;;5024999;28;44012;-68
2021/12/14 05:28:02;;;;;;;3.40;3.10;;;16.60;69.40;;;;;;5024647;28;44038;-68
2021/12/14 05:30:40;;;;;;;3.27;2.90;;;16.60;68.90;;;;;;5024804;28;44485;-69
2021/12/14 05:33:15;;;;;;;2.93;2.73;;;16.70;68.70;;;;;;5024963;28;43450;-69
2021/12/14 05:35:46;;;;;;;2.70;2.60;;;16.90;68.30;;;;;;5025460;28;44062;-69
2021/12/14 05:38:17;;;;;;;3.13;2.63;;;16.90;68.20;;;;;;5024810;28;44049;-69
2021/12/14 05:40:57;;;;;;;2.80;2.60;;;16.90;68.10;;;;;;5024887;28;44756;-68
2021/12/14 05:43:34;;;;;;;2.87;2.67;;;16.80;68.10;;;;;;5024719;28;43977;-69
2021/12/14 05:46:11;;;;;;;3.10;2.77;;;16.80;68.30;;;;;;5025515;28;43412;-69
2021/12/14 05:48:56;;;;;;;2.57;2.37;;;16.70;68.30;;;;;;5028038;28;46287;-69
2021/12/14 05:51:24;;;;;;;3.70;3.00;;;16.70;68.50;;;;;;5027573;28;43385;-69
2021/12/14 05:53:52;;;;;;;3.23;2.70;;;16.60;68.60;;;;;;5027907;28;43985;-70
2021/12/14 05:56:21;;;;;;;2.87;2.60;;;16.60;68.70;;;;;;5028298;28;43762;-69
2021/12/14 05:58:52;;;;;;;3.20;3.00;;;16.60;68.90;;;;;;5027791;28;44079;-69
2021/12/14 06:01:24;;;;;;;3.03;2.83;;;16.60;69.60;;;;;;5027716;28;44034;-69
2021/12/14 06:03:54;;;;;;;2.90;2.70;;;16.60;69.00;;;;;;5027673;28;44031;-69
2021/12/14 06:06:24;;;;;;;3.00;2.70;;;16.50;68.90;;;;;;5027910;28;43949;-69
2021/12/14 06:08:59;;;;;;;3.27;3.07;;;16.60;69.30;;;;;;5027614;28;45433;-69
2021/12/14 06:11:34;;;;;;;3.00;2.80;;;16.60;69.00;;;;;;5019750;28;44630;-69
2021/12/14 06:14:04;;;;;;;3.07;2.70;;;16.80;68.50;;;;;;5027533;28;43958;-69
2021/12/14 06:16:35;;;;;;;4.07;3.10;;;17.00;68.10;;;;;;5029448;28;44097;-69
2021/12/14 06:19:15;;;;;;;3.10;2.90;;;17.10;67.70;;;;;;5027563;28;45856;-69
2021/12/14 06:21:45;;;;;;;4.77;2.83;;;17.10;67.40;;;;;;5027539;28;45350;-69
2021/12/14 06:24:13;;;;;;;3.40;2.70;;;17.10;67.40;;;;;;5027524;28;43371;-68
2021/12/14 06:26:45;;;;;;;3.27;2.97;;;17.00;67.50;;;;;;5027889;28;44035;-69
2021/12/14 06:29:16;;;;;;;2.80;2.60;;;17.00;67.70;;;;;;5027369;28;44883;-69
2021/12/14 06:31:45;;;;;;;3.13;2.87;;;16.90;68.00;;;;;;5028516;28;44024;-69
2021/12/14 06:34:15;;;;;;;3.30;3.10;;;16.80;68.10;;;;;;5027157;28;43926;-69
2021/12/14 06:37:29;;;;;;;2.77;2.57;;;16.80;68.30;;;;;;5027856;28;43583;-68
2021/12/14 06:40:05;;;;;;;3.03;2.83;;;16.70;68.40;;;;;;5012988;28;44090;-68
2021/12/14 06:42:35;;;;;;;3.00;2.80;;;16.70;68.60;;;;;;5027249;28;44373;-69
2021/12/14 06:45:09;;;;;;;3.10;2.80;;;16.70;68.70;;;;;;5027702;28;44061;-69
2021/12/14 06:47:38;;;;;;;2.70;2.50;;;16.60;68.70;;;;;;5027683;28;44001;-69
2021/12/14 06:50:08;;;;;;;3.37;3.07;;;16.70;68.80;;;;;;5020779;28;45418;-69
2021/12/14 06:52:37;;;;;;;3.20;3.00;;;16.80;68.50;;;;;;5017213;28;44769;-70
2021/12/14 06:55:37;;;;;;;2.67;2.57;;;16.90;68.90;;;;;;5028512;28;44006;-68
2021/12/14 06:58:24;;;;;;;3.33;3.07;;;16.80;67.90;;;;;;5025311;28;44018;-68
2021/12/14 07:01:05;;;;;;;2.90;2.70;;;16.80;68.00;;;;;;5026686;28;45686;-69
2021/12/14 07:03:46;;;;;;;3.20;2.63;;;16.80;68.20;;;;;;5026485;28;44083;-68
2021/12/14 07:06:21;;;;;;;2.83;2.67;;;16.70;68.30;;;;;;5026614;28;43374;-69
2021/12/14 07:08:49;;;;;;;2.70;2.60;;;16.70;68.50;;;;;;5027571;28;43910;-68
2021/12/14 07:11:20;;;;;;;2.70;2.60;;;16.60;68.60;;;;;;5026991;28;46275;-69
2021/12/14 07:13:48;;;;;;;2.83;2.70;;;16.60;68.70;;;;;;5028144;28;43983;-69
2021/12/14 07:16:20;;;;;;;2.73;2.63;;;16.60;68.90;;;;;;5028107;28;44031;-69
2021/12/14 07:18:54;;;;;;;3.07;2.77;;;16.60;69.00;;;;;;5029189;28;44334;-69
2021/12/14 07:21:35;;;;;;;2.37;2.30;;;16.50;68.90;;;;;;5021732;28;44708;-68
2021/12/14 07:24:36;;;;;;;2.50;2.40;;;16.50;69.00;;;;;;5023443;28;44013;-69
2021/12/14 07:27:19;;;;;;;3.27;3.07;;;16.50;69.30;;;;;;5026539;28;43449;-69
2021/12/14 07:29:47;;;;;;;2.27;2.17;;;16.60;69.10;;;;;;5028436;28;43435;-68
2021/12/14 07:32:15;;;;;;;2.57;2.47;;;16.70;68.70;;;;;;5027085;28;43952;-69
2021/12/14 07:34:45;;;;;;;2.87;2.67;;;16.90;68.30;;;;;;5027234;28;43453;-68
2021/12/14 07:37:12;;;;;;;2.50;2.40;;;17.00;67.80;;;;;;5027546;28;43423;-69
2021/12/14 07:39:40;;;;;;;2.63;2.53;;;17.10;67.50;;;;;;5027789;28;43838;-70
2021/12/14 07:42:08;;;;;;;2.80;2.70;;;17.10;67.40;;;;;;5027036;28;45114;-69
2021/12/14 07:44:58;;;;;;;2.27;2.17;;;17.00;67.40;;;;;;5025900;28;44735;-69
2021/12/14 07:47:26;;;;;;;2.67;2.57;;;17.00;67.70;;;;;;5027283;28;43727;-69
2021/12/14 07:49:56;;;;;;;2.83;2.57;;;16.90;67.90;;;;;;5027530;28;43857;-70
2021/12/14 07:52:28;;;;;;;2.53;2.43;;;16.80;68.00;;;;;;5026931;28;43999;-69
2021/12/14 07:54:58;;;;;;;2.80;2.70;;;16.80;68.20;;;;;;5025682;28;45011;-68
2021/12/14 07:57:27;;;;;;;2.33;2.23;;;16.70;68.30;;;;;;5026512;28;43387;-70
2021/12/14 07:59:57;;;;;;;2.27;2.17;;;16.70;68.40;;;;;;5026023;28;43981;-69
2021/12/14 08:02:30;;;;;;;2.63;2.53;;;16.70;68.50;;;;;;5020402;28;44010;-69
2021/12/14 08:05:01;;;;;;;2.67;2.57;;;16.70;68.60;;;;;;5032894;28;44177;-69
2021/12/14 08:07:30;;;;;;;2.20;2.10;;;16.70;68.80;;;;;;5047217;28;43994;-68
2021/12/14 08:10:06;;;;;;;3.10;2.90;;;16.70;68.70;;;;;;5028032;28;44238;-69
2021/12/14 08:12:37;;;;;;;2.50;2.40;;;16.90;68.30;;;;;;5047063;28;44003;-68
2021/12/14 08:15:12;;;;;;;2.63;2.53;;;16.90;67.90;;;;;;5047067;28;44011;-69
2021/12/14 08:17:41;;;;;;;2.57;2.37;;;16.90;67.80;;;;;;5028717;28;44005;-69
2021/12/14 08:20:11;;;;;;;2.53;2.43;;;16.90;68.00;;;;;;5047336;28;43966;-69
2021/12/14 08:22:53;;;;;;;2.40;2.30;;;16.80;68.10;;;;;;5028401;28;44166;-69
2021/12/14 08:25:24;;;;;;;2.60;2.50;;;16.80;68.30;;;;;;5046886;28;43949;-69
2021/12/14 08:28:00;;;;;;;3.20;2.93;;;16.70;68.40;;;;;;5047187;28;43877;-68
2021/12/14 08:30:28;;;;;;;2.43;2.33;;;16.70;68.60;;;;;;5028860;28;43952;-69
2021/12/14 08:32:56;;;;;;;2.77;2.67;;;16.70;68.70;;;;;;5046525;28;43944;-70
2021/12/14 08:35:26;;;;;;;2.53;2.47;;;16.60;68.70;;;;;;5046714;28;44098;-69
2021/12/14 08:37:58;;;;;;;2.60;2.50;;;16.60;68.90;;;;;;5046628;28;44090;-69
2021/12/14 08:40:27;;;;;;;2.67;2.57;;;16.60;68.90;;;;;;5046990;28;43345;-68
2021/12/14 08:43:02;;;;;;;2.70;2.57;;;16.60;69.00;;;;;;5046172;28;43845;-69
2021/12/14 08:45:33;;;;;;;2.90;2.80;;;16.60;69.20;;;;;;5046658;28;43892;-68
2021/12/14 08:48:08;;;;;;;2.57;2.47;;;16.60;69.10;;;;;;5046711;28;44037;-69
2021/12/14 08:50:39;;;;;;;2.53;2.43;;;16.70;68.70;;;;;;5046972;28;44066;-69
2021/12/14 08:53:08;;;;;;;2.60;2.50;;;16.90;68.40;;;;;;5046396;28;45094;-68
2021/12/14 08:55:37;;;;;;;2.50;2.40;;;17.00;67.90;;;;;;5028049;28;44346;-68
2021/12/14 08:58:05;;;;;;;2.23;2.13;;;17.10;67.50;;;;;;5046452;28;43995;-69
2021/12/14 09:00:36;;;;;;;2.20;2.20;;;17.10;67.30;;;;;;5046582;28;44248;-70
2021/12/14 09:03:04;;;;;;;2.30;2.20;;;17.00;67.40;;;;;;5027876;28;44454;-69
2021/12/14 09:05:34;;;;;;;2.70;2.60;;;17.00;67.60;;;;;;5045494;28;43961;-69
2021/12/14 09:08:04;;;;;;;2.50;2.40;;;16.90;67.80;;;;;;5028299;28;43422;-69
2021/12/14 09:10:33;;;;;;;2.43;2.33;;;16.90;68.00;;;;;;5046554;28;43957;-69
2021/12/14 09:13:03;;;;;;;2.30;2.20;;;16.80;68.10;;;;;;5045784;28;44366;-69
2021/12/14 09:15:32;;;;;;;2.40;2.30;;;16.80;68.30;;;;;;5045982;28;43960;-69
2021/12/14 09:18:00;;;;;;;2.40;2.30;;;16.70;68.30;;;;;;5045965;28;43430;-70
2021/12/14 09:20:30;;;;;;;2.50;2.40;;;16.70;68.50;;;;;;5046433;28;44017;-70
2021/12/14 09:23:00;;;;;;;2.43;2.33;;;16.70;69.30;;;;;;5038629;28;43783;-68
2021/12/14 09:25:30;;;;;;;2.60;2.50;;;16.60;68.70;;;;;;5039459;28;44127;-68
2021/12/14 09:27:59;;;;;;;2.67;2.57;;;16.70;68.70;;;;;;5039847;28;43755;-69
2021/12/14 09:30:29;;;;;;;2.60;2.50;;;16.80;68.20;;;;;;5046282;28;43941;-69
2021/12/14 09:32:57;;;;;;;2.40;2.30;;;16.90;68.00;;;;;;5045592;28;45097;-69
2021/12/14 09:35:26;;;;;;;2.10;2.00;;;16.90;68.00;;;;;;5045694;28;44050;-69
2021/12/14 09:37:55;;;;;;;2.60;2.50;;;16.90;68.00;;;;;;5045952;28;43925;-69
2021/12/14 09:40:30;;;;;;;2.67;2.50;;;16.80;68.10;;;;;;5046354;28;43933;-69
2021/12/14 09:42:59;;;;;;;2.37;2.27;;;16.80;68.30;;;;;;5045761;28;43848;-68
2021/12/14 09:45:33;;;;;;;2.83;2.63;;;16.70;68.40;;;;;;5045555;28;43557;-69
2021/12/14 09:48:01;;;;;;;2.60;2.50;;;16.70;68.50;;;;;;5028064;28;43919;-69
2021/12/14 09:50:31;;;;;;;2.43;2.43;;;16.70;68.60;;;;;;5046115;28;44004;-69
2021/12/14 09:53:00;;;;;;;2.40;2.30;;;16.60;68.70;;;;;;5045370;28;43993;-69
2021/12/14 09:55:30;;;;;;;2.50;2.40;;;16.60;68.70;;;;;;5045311;28;44095;-69
2021/12/14 09:58:04;;;;;;;2.13;2.13;;;16.60;68.70;;;;;;5027646;28;43376;-69
2021/12/14 10:00:35;;;;;;;3.00;2.90;;;16.60;68.80;;;;;;5046096;28;43988;-69
2021/12/14 10:03:03;;;;;;;2.50;2.40;;;16.60;68.90;;;;;;5045600;28;44030;-69
2021/12/14 10:05:37;;;;;;;2.30;2.20;;;16.60;69.00;;;;;;5044864;28;44051;-69
2021/12/14 10:08:13;;;;;;;2.37;2.37;;;16.70;68.90;;;;;;5045637;28;44005;-69
2021/12/14 10:10:42;;;;;;;2.50;2.40;;;16.90;68.50;;;;;;5046053;28;43969;-70
2021/12/14 10:13:11;;;;;;;2.57;2.47;;;17.00;68.00;;;;;;5027266;28;46156;-69
2021/12/14 10:15:40;;;;;;;2.07;2.07;;;17.10;67.50;;;;;;5045023;28;44052;-69
2021/12/14 10:18:11;;;;;;;2.40;2.30;;;17.10;67.30;;;;;;5045640;28;44428;-68
2021/12/14 10:20:43;;;;;;;2.50;2.40;;;17.10;67.30;;;;;;5045806;28;43886;-69
2021/12/14 10:23:11;;;;;;;2.63;2.53;;;17.00;67.50;;;;;;5045129;28;43944;-69
2021/12/14 10:25:39;;;;;;;2.30;2.27;;;16.90;67.70;;;;;;5026953;28;44555;-69
2021/12/14 10:28:06;;;;;;;2.37;2.27;;;16.90;68.00;;;;;;5045345;28;43902;-69
2021/12/14 10:30:37;;;;;;;2.60;2.50;;;16.80;68.10;;;;;;5045650;28;44186;-69
2021/12/14 10:33:06;;;;;;;2.30;2.30;;;16.70;68.30;;;;;;5045621;28;43937;-69
2021/12/14 10:35:42;;;;;;;2.10;2.10;;;16.70;68.40;;;;;;5048335;28;43830;-69
2021/12/14 10:38:18;;;;;;;2.50;2.40;;;16.70;68.60;;;;;;5030423;28;43508;-69
2021/12/14 10:43:34;;;;;;;2.60;2.50;;;16.60;68.70;;;;;;5048397;28;44028;-69
2021/12/14 10:46:06;;;;;;;2.70;2.60;;;16.60;68.90;;;;;;5048116;28;44571;-69
2021/12/14 10:48:38;;;;;;;2.53;2.43;;;16.70;68.60;;;;;;5030240;28;43945;-69
2021/12/14 10:51:07;;;;;;;2.57;2.47;;;16.80;68.20;;;;;;5048818;28;43973;-70
2021/12/14 10:53:35;;;;;;;2.30;2.30;;;16.90;68.00;;;;;;5048042;28;43968;-69
2021/12/14 10:56:09;;;;;;;2.33;2.33;;;16.90;68.00;;;;;;5048087;28;44076;-68
2021/12/14 10:58:37;;;;;;;2.20;2.20;;;16.90;68.10;;;;;;5048407;28;43996;-69
2021/12/14 11:01:08;;;;;;;2.17;2.17;;;16.80;68.20;;;;;;5048409;28;43964;-69
2021/12/14 11:03:44;;;;;;;2.63;2.57;;;16.80;68.30;;;;;;5048162;28;44905;-68
2021/12/14 11:06:13;;;;;;;2.43;2.33;;;16.70;68.50;;;;;;5047764;28;44362;-68
2021/12/14 11:08:48;;;;;;;2.70;2.60;;;16.70;68.50;;;;;;5048051;28;44011;-69
2021/12/14 11:11:21;;;;;;;2.80;2.70;;;16.70;68.70;;;;;;5048724;28;44006;-68
2021/12/14 11:13:52;;;;;;;2.40;2.40;;;16.60;68.70;;;;;;5047781;28;45115;-69
2021/12/14 11:18:08;;;;;;;2.60;2.60;;;16.60;68.70;;;;;;5048117;28;44021;-69
2021/12/14 11:19:33;;;;;;;2.70;2.60;;;16.60;68.80;;;;;;5048308;28;43942;-69
2021/12/14 11:22:09;;;;;;;2.37;2.27;;;16.60;68.90;;;;;;5048372;28;44058;-70
2021/12/14 11:24:37;;;;;;;2.93;2.83;;;16.60;69.10;;;;;;5040954;28;43949;-70
2021/12/14 11:27:12;;;;;;;2.50;2.40;;;16.70;69.00;;;;;;5042209;28;44140;-69
2021/12/14 11:29:40;;;;;;;2.90;2.80;;;16.80;68.60;;;;;;5041536;28;44052;-69
2021/12/14 11:32:15;;;;;;;2.57;2.53;;;17.00;68.20;;;;;;5046397;28;44338;-68
2021/12/14 11:34:45;;;;;;;2.50;2.40;;;17.00;67.70;;;;;;5028884;28;45930;-70
2021/12/14 11:37:16;;;;;;;2.60;2.50;;;17.10;67.40;;;;;;5047323;28;44022;-69
2021/12/14 11:39:46;;;;;;;2.60;2.50;;;17.00;67.30;;;;;;5029327;28;43969;-69
2021/12/14 11:42:22;;;;;;;2.70;2.60;;;17.00;67.60;;;;;;5048023;28;43989;-69
2021/12/14 11:44:51;;;;;;;2.63;2.53;;;16.90;67.80;;;;;;5047538;28;44107;-69
2021/12/14 11:47:41;;;;;;;2.43;2.43;;;16.80;67.90;;;;;;5047180;28;44011;-70
2021/12/14 11:50:15;;;;;;;2.90;2.80;;;16.80;68.20;;;;;;5047624;28;43791;-69
2021/12/14 11:52:50;;;;;;;3.00;2.90;;;16.70;68.40;;;;;;5047938;28;44039;-70
2021/12/14 11:55:29;;;;;;;2.60;2.50;;;16.70;68.50;;;;;;5047107;28;43957;-69
2021/12/14 11:58:14;;;;;;;3.07;2.97;;;16.70;68.70;;;;;;5028937;28;44200;-69
2021/12/14 12:00:43;;;;;;;2.90;2.80;;;16.60;68.70;;;;;;5047275;28;43863;-68
2021/12/14 12:03:21;;;;;;;2.90;2.80;;;16.60;68.80;;;;;;5047497;28;43958;-68
2021/12/14 12:06:05;;;;;;;3.07;2.97;;;16.60;68.90;;;;;;5046405;28;44743;-69
2021/12/14 12:11:18;;;;;;;3.00;2.90;;;16.80;68.20;;;;;;5047273;28;43993;-69
2021/12/14 12:13:46;;;;;;;3.00;2.90;;;16.80;68.00;;;;;;5047460;28;43911;-68
2021/12/14 12:16:18;;;;;;;3.00;2.90;;;16.80;68.10;;;;;;5028461;28;45820;-69
2021/12/14 12:19:13;;;;;;;3.00;2.90;;;16.80;68.30;;;;;;5046903;28;44263;-69
2021/12/14 12:21:41;;;;;;;2.97;2.87;;;16.70;68.40;;;;;;5047160;28;43916;-69
2021/12/14 12:24:32;;;;;;;3.03;2.93;;;16.70;68.50;;;;;;5046998;28;44047;-69
2021/12/14 12:27:15;;;;;;;3.10;3.00;;;16.70;68.70;;;;;;5046861;28;43934;-69
2021/12/14 12:29:43;;;;;;;3.10;2.90;;;16.60;68.70;;;;;;5046775;28;43818;-69
2021/12/14 12:32:19;;;;;;;3.00;2.90;;;16.60;68.80;;;;;;5046632;28;43913;-69
2021/12/14 12:34:50;;;;;;;3.20;3.10;;;16.60;68.90;;;;;;5047041;28;43943;-69
2021/12/14 12:37:20;;;;;;;3.20;3.00;;;16.60;68.90;;;;;;5046748;28;43959;-69
2021/12/14 12:39:48;;;;;;;3.00;2.90;;;16.60;68.90;;;;;;5044533;28;43981;-69
2021/12/14 12:42:16;;;;;;;3.07;2.93;;;16.60;69.00;;;;;;5046623;28;43584;-69
2021/12/14 12:44:44;;;;;;;3.60;3.37;;;16.60;69.10;;;;;;5046674;28;43874;-69
2021/12/14 12:47:14;;;;;;;3.60;3.30;;;16.70;68.80;;;;;;5028203;28;46168;-69
2021/12/14 12:49:42;;;;;;;3.23;3.03;;;16.80;68.30;;;;;;5046315;28;43973;-69
2021/12/14 12:52:13;;;;;;;3.33;3.23;;;17.00;67.90;;;;;;5046637;28;43984;-68
2021/12/14 12:55:02;;;;;;;3.40;3.30;;;17.10;67.30;;;;;;5046968;28;43484;-69
2021/12/14 12:57:42;;;;;;;3.57;3.37;;;17.20;67.10;;;;;;5045713;28;43921;-70
2021/12/14 13:00:17;;;;;;;3.30;3.20;;;17.20;67.00;;;;;;5046037;28;44077;-69
2021/12/14 13:02:47;;;;;;;3.20;3.10;;;17.10;67.20;;;;;;5027988;28;43478;-69
2021/12/14 13:05:19;;;;;;;3.13;3.00;;;17.00;67.40;;;;;;5045745;28;43491;-69
2021/12/14 13:07:50;;;;;;;3.07;2.87;;;16.90;67.70;;;;;;5046310;28;44035;-69
2021/12/14 13:10:27;;;;;;;3.13;2.90;;;16.90;68.00;;;;;;5028213;28;44612;-68
2021/12/14 13:13:00;;;;;;;3.13;3.03;;;16.80;68.10;;;;;;5046377;28;44006;-69
2021/12/14 13:16:03;;;;;;;3.30;3.20;;;16.70;68.20;;;;;;5046681;28;43847;-69
2021/12/14 13:18:47;;;;;;;2.80;2.70;;;16.70;68.30;;;;;;5045987;28;45051;-69
2021/12/14 13:21:35;;;;;;;2.80;2.70;;;16.70;68.50;;;;;;5046109;28;43886;-69
2021/12/14 13:24:19;;;;;;;3.13;3.03;;;16.70;68.80;;;;;;5046267;28;43396;-69
2021/12/14 13:26:56;;;;;;;3.27;3.10;;;16.70;68.50;;;;;;5028171;28;43978;-69
2021/12/14 13:29:34;;;;;;;3.20;3.10;;;16.90;68.20;;;;;;5028234;28;45352;-68
2021/12/14 13:32:07;;;;;;;3.23;3.13;;;16.90;67.90;;;;;;5046067;28;43953;-68
2021/12/14 13:34:43;;;;;;;2.80;2.80;;;16.90;68.00;;;;;;5027841;28;44082;-69